createdAt,value
2023-03-21T00:00:16.234Z,101387.66
2023-03-21T00:01:07.799Z,101387.66
2023-03-21T00:01:59.598Z,101385.91
2023-03-21T00:02:51.489Z,101384.22
2023-03-21T00:03:48.123Z,101387.69
2023-03-21T00:04:50.810Z,101384.25
2023-03-21T00:05:51.703Z,101382.59
2023-03-21T00:06:43.686Z,101384.38
2023-03-21T00:07:35.209Z,101381.72
2023-03-21T00:08:27.377Z,101379.00
2023-03-21T00:09:20.441Z,101381.66
2023-03-21T00:10:18.024Z,101382.53
2023-03-21T00:11:13.203Z,101381.66
2023-03-21T00:12:08.683Z,101381.66
2023-03-21T00:13:00.231Z,101382.59
2023-03-21T00:13:53.621Z,101386.84
2023-03-21T00:14:45.939Z,101377.28
2023-03-21T00:15:58.018Z,101376.34
2023-03-21T00:16:55.184Z,101381.44
2023-03-21T00:17:50.894Z,101377.25
2023-03-21T00:18:48.629Z,101381.63
2023-03-21T00:19:41.223Z,101376.41
2023-03-21T00:20:37.750Z,101368.63
2023-03-21T00:22:03.576Z,101373.75
2023-03-21T00:22:43.674Z,101367.56
2023-03-21T00:23:36.349Z,101371.00
2023-03-21T00:24:27.947Z,101368.44
2023-03-21T00:25:19.995Z,101371.00
2023-03-21T00:26:11.948Z,101372.69
2023-03-21T00:28:20.991Z,101366.56
2023-03-21T00:29:13.396Z,101366.63
2023-03-21T00:30:06.139Z,101368.34
2023-03-21T00:31:01.082Z,101364.88
2023-03-21T00:31:52.863Z,101368.34
2023-03-21T00:32:55.473Z,101359.66
2023-03-21T00:33:47.749Z,101358.78
2023-03-21T00:34:43.301Z,101359.66
2023-03-21T00:36:05.692Z,101354.50
2023-03-21T00:36:58.375Z,101356.25
2023-03-21T00:37:49.879Z,101352.75
2023-03-21T00:38:41.933Z,101361.38
2023-03-21T00:39:33.409Z,101357.91
2023-03-21T00:40:29.618Z,101344.00
2023-03-21T00:41:41.155Z,101351.06
2023-03-21T00:42:33.470Z,101353.69
2023-03-21T00:43:30.143Z,101353.56
2023-03-21T00:44:23.348Z,101356.16
2023-03-21T00:45:16.573Z,101354.41
2023-03-21T00:46:08.588Z,101355.19
2023-03-21T00:47:07.581Z,101346.56
2023-03-21T00:47:59.752Z,101351.78
2023-03-21T00:48:53.230Z,101352.59
2023-03-21T00:49:45.839Z,101354.31
2023-03-21T00:50:38.781Z,101350.84
2023-03-21T00:51:30.475Z,101344.81
2023-03-21T00:52:38.004Z,101348.22
2023-03-21T00:53:31.692Z,101348.16
2023-03-21T00:54:23.975Z,101350.84
2023-03-21T00:55:17.580Z,101347.34
2023-03-21T00:56:09.529Z,101343.03
2023-03-21T00:57:02.846Z,101345.66
2023-03-21T00:58:01.468Z,101343.97
2023-03-21T00:58:53.673Z,101337.94
2023-03-21T00:59:45.718Z,101334.50
2023-03-21T01:00:37.780Z,101329.34
2023-03-21T01:01:32.206Z,101333.59
2023-03-21T01:02:26.543Z,101340.53
2023-03-21T01:03:24.965Z,101335.34
2023-03-21T01:04:17.127Z,101336.28
2023-03-21T01:05:11.521Z,101336.28
2023-03-21T01:06:07.639Z,101331.06
2023-03-21T01:06:59.291Z,101330.25
2023-03-21T01:07:53.063Z,101332.84
2023-03-21T01:08:54.234Z,101326.75
2023-03-21T01:09:45.906Z,101330.19
2023-03-21T01:10:42.685Z,101330.19
2023-03-21T01:11:35.050Z,101326.75
2023-03-21T01:12:28.589Z,101325.88
2023-03-21T01:13:23.362Z,101329.34
2023-03-21T01:14:23.094Z,101325.03
2023-03-21T01:15:15.537Z,101324.16
2023-03-21T01:16:09.092Z,101331.06
2023-03-21T01:17:00.845Z,101322.38
2023-03-21T01:17:52.327Z,101322.38
2023-03-21T01:18:43.951Z,101318.13
2023-03-21T01:19:50.620Z,101317.28
2023-03-21T01:20:45.179Z,101323.31
2023-03-21T01:21:37.337Z,101322.47
2023-03-21T01:22:28.824Z,101321.63
2023-03-21T01:23:20.460Z,101318.13
2023-03-21T01:24:11.981Z,101313.72
2023-03-21T01:25:21.204Z,101314.47
2023-03-21T01:26:15.013Z,101315.28
2023-03-21T01:27:08.529Z,101316.94
2023-03-21T01:28:00.298Z,101310.06
2023-03-21T01:28:52.480Z,101313.53
2023-03-21T01:29:44.089Z,101311.78
2023-03-21T01:30:41.704Z,101317.78
2023-03-21T01:31:33.838Z,101313.44
2023-03-21T01:32:26.029Z,101312.56
2023-03-21T01:33:19.862Z,101312.56
2023-03-21T01:34:11.483Z,101310.06
2023-03-21T01:35:03.983Z,101314.34
2023-03-21T01:36:06.515Z,101314.34
2023-03-21T01:37:03.737Z,101310.84
2023-03-21T01:37:59.860Z,101315.28
2023-03-21T01:38:53.264Z,101311.03
2023-03-21T01:39:46.037Z,101317.16
2023-03-21T01:40:38.874Z,101314.47
2023-03-21T01:41:44.547Z,101314.44
2023-03-21T01:42:45.964Z,101307.47
2023-03-21T01:43:40.170Z,101314.38
2023-03-21T01:44:33.608Z,101306.47
2023-03-21T01:46:02.451Z,101310.84
2023-03-21T01:47:13.841Z,101309.00
2023-03-21T01:48:11.716Z,101311.66
2023-03-21T01:49:25.959Z,101310.00
2023-03-21T01:50:26.955Z,101309.97
2023-03-21T01:51:27.504Z,101312.50
2023-03-21T01:52:37.902Z,101309.84
2023-03-21T01:53:40.609Z,101310.75
2023-03-21T01:54:38.497Z,101312.50
2023-03-21T01:55:31.338Z,101314.28
2023-03-21T01:56:36.409Z,101309.91
2023-03-21T01:57:51.917Z,101308.06
2023-03-21T01:58:55.482Z,101308.97
2023-03-21T02:00:12.397Z,101303.81
2023-03-21T02:01:23.023Z,101304.63
2023-03-21T02:02:29.456Z,101298.59
2023-03-21T02:03:38.349Z,101295.97
2023-03-21T02:04:41.226Z,101297.75
2023-03-21T02:05:50.143Z,101300.28
2023-03-21T02:06:54.616Z,101298.59
2023-03-21T02:07:56.748Z,101295.22
2023-03-21T02:08:48.989Z,101294.31
2023-03-21T02:09:46.590Z,101293.47
2023-03-21T02:10:50.132Z,101290.81
2023-03-21T02:11:55.150Z,101286.41
2023-03-21T02:12:48.488Z,101289.88
2023-03-21T02:13:40.712Z,101290.72
2023-03-21T02:14:38.313Z,101283.72
2023-03-21T02:16:06.422Z,101283.72
2023-03-21T02:17:20.467Z,101285.38
2023-03-21T02:18:30.882Z,101275.84
2023-03-21T02:19:35.653Z,101280.19
2023-03-21T02:21:06.058Z,101279.28
2023-03-21T02:22:43.421Z,101277.63
2023-03-21T02:23:37.831Z,101274.25
2023-03-21T02:24:42.730Z,101275.91
2023-03-21T02:26:01.699Z,101268.94
2023-03-21T02:27:15.888Z,101269.81
2023-03-21T02:28:29.648Z,101270.72
2023-03-21T02:29:48.712Z,101268.13
2023-03-21T02:31:06.882Z,101258.50
2023-03-21T02:32:37.361Z,101259.41
2023-03-21T02:33:48.836Z,101255.97
2023-03-21T02:35:00.933Z,101251.59
2023-03-21T02:36:14.229Z,101251.63
2023-03-21T02:37:36.679Z,101246.44
2023-03-21T02:38:47.377Z,101255.22
2023-03-21T02:39:50.928Z,101242.22
2023-03-21T02:41:05.351Z,101243.09
2023-03-21T02:42:34.408Z,101243.94
2023-03-21T02:44:06.200Z,101246.50
2023-03-21T02:44:59.785Z,101238.69
2023-03-21T02:46:01.508Z,101246.53
2023-03-21T02:47:06.388Z,101248.16
2023-03-21T02:48:26.833Z,101247.22
2023-03-21T02:49:31.785Z,101247.97
2023-03-21T02:50:33.185Z,101244.44
2023-03-21T02:51:30.727Z,101253.06
2023-03-21T02:52:39.278Z,101249.53
2023-03-21T02:53:40.248Z,101246.28
2023-03-21T02:54:47.593Z,101251.53
2023-03-21T02:55:47.337Z,101248.00
2023-03-21T02:56:42.965Z,101240.19
2023-03-21T02:57:42.479Z,101245.41
2023-03-21T02:58:41.207Z,101245.47
2023-03-21T02:59:39.433Z,101254.97
2023-03-21T03:00:40.125Z,101243.72
2023-03-21T03:01:32.202Z,101246.31
2023-03-21T03:02:28.333Z,101250.59
2023-03-21T03:03:33.058Z,101247.88
2023-03-21T03:04:28.334Z,101242.69
2023-03-21T03:05:28.537Z,101244.44
2023-03-21T03:06:29.231Z,101240.94
2023-03-21T03:07:41.444Z,101243.59
2023-03-21T03:08:59.740Z,101237.47
2023-03-21T03:10:26.979Z,101242.66
2023-03-21T03:11:24.303Z,101241.81
2023-03-21T03:12:45.744Z,101236.56
2023-03-21T03:13:46.441Z,101243.44
2023-03-21T03:15:03.377Z,101246.09
2023-03-21T03:16:36.891Z,101235.72
2023-03-21T03:17:47.609Z,101239.16
2023-03-21T03:18:49.599Z,101236.53
2023-03-21T03:20:15.124Z,101240.91
2023-03-21T03:21:20.193Z,101233.94
2023-03-21T03:22:23.809Z,101232.19
2023-03-21T03:23:55.622Z,101232.19
2023-03-21T03:25:19.828Z,101233.09
2023-03-21T03:26:30.177Z,101231.44
2023-03-21T03:27:32.414Z,101234.03
2023-03-21T03:28:36.484Z,101234.78
2023-03-21T03:29:38.866Z,101233.97
2023-03-21T03:30:41.143Z,101229.59
2023-03-21T03:31:44.489Z,101223.47
2023-03-21T03:32:50.281Z,101218.25
2023-03-21T03:33:52.144Z,101222.44
2023-03-21T03:34:50.998Z,101216.31
2023-03-21T03:35:53.055Z,101217.03
2023-03-21T03:36:59.683Z,101223.78
2023-03-21T03:37:59.440Z,101226.31
2023-03-21T03:38:51.722Z,101219.25
2023-03-21T03:39:56.976Z,101216.53
2023-03-21T03:40:58.381Z,101213.75
2023-03-21T03:42:21.871Z,101215.31
2023-03-21T03:43:36.020Z,101219.34
2023-03-21T03:44:28.514Z,101215.81
2023-03-21T03:45:35.603Z,101210.44
2023-03-21T03:46:33.328Z,101212.00
2023-03-21T03:47:57.796Z,101205.69
2023-03-21T03:49:04.583Z,101209.94
2023-03-21T03:50:06.263Z,101208.06
2023-03-21T03:51:16.307Z,101212.25
2023-03-21T03:52:40.050Z,101219.03
2023-03-21T03:53:43.168Z,101213.75
2023-03-21T03:54:41.610Z,101211.88
2023-03-21T03:55:34.868Z,101213.63
2023-03-21T03:56:38.896Z,101214.44
2023-03-21T03:57:30.868Z,101212.69
2023-03-21T03:58:33.461Z,101214.34
2023-03-21T03:59:35.702Z,101204.81
2023-03-21T04:00:50.885Z,101216.97
2023-03-21T04:01:42.455Z,101210.19
2023-03-21T04:02:34.156Z,101213.66
2023-03-21T04:03:29.353Z,101209.41
2023-03-21T04:04:28.569Z,101209.50
2023-03-21T04:05:21.270Z,101208.72
2023-03-21T04:06:13.796Z,101201.88
2023-03-21T04:07:06.564Z,101205.47
2023-03-21T04:07:58.512Z,101205.59
2023-03-21T04:09:03.490Z,101203.09
2023-03-21T04:09:57.985Z,101201.44
2023-03-21T04:10:49.449Z,101205.09
2023-03-21T04:11:41.019Z,101198.22
2023-03-21T04:12:32.513Z,101199.19
2023-03-21T04:13:44.275Z,101201.09
2023-03-21T04:14:45.673Z,101202.84
2023-03-21T04:15:38.904Z,101195.91
2023-03-21T04:16:38.149Z,101196.03
2023-03-21T04:17:29.947Z,101194.25
2023-03-21T04:18:23.016Z,101195.16
2023-03-21T04:19:15.981Z,101196.84
2023-03-21T04:20:15.061Z,101201.19
2023-03-21T04:21:13.048Z,101188.19
2023-03-21T04:22:05.095Z,101193.38
2023-03-21T04:23:01.177Z,101195.09
2023-03-21T04:23:55.009Z,101199.41
2023-03-21T04:24:47.022Z,101196.84
2023-03-21T04:25:47.676Z,101193.38
2023-03-21T04:26:45.807Z,101194.31
2023-03-21T04:28:03.892Z,101194.44
2023-03-21T04:29:14.513Z,101189.25
2023-03-21T04:30:34.039Z,101191.03
2023-03-21T04:31:35.910Z,101191.97
2023-03-21T04:32:39.409Z,101187.69
2023-03-21T04:33:38.330Z,101192.81
2023-03-21T04:34:30.186Z,101190.22
2023-03-21T04:35:25.065Z,101192.81
2023-03-21T04:36:25.172Z,101191.16
2023-03-21T04:37:19.299Z,101179.88
2023-03-21T04:38:12.255Z,101183.41
2023-03-21T04:39:11.865Z,101182.59
2023-03-21T04:40:07.708Z,101180.81
2023-03-21T04:41:00.675Z,101182.63
2023-03-21T04:41:54.214Z,101179.19
2023-03-21T04:42:47.877Z,101184.34
2023-03-21T04:43:39.484Z,101183.53
2023-03-21T04:44:31.079Z,101180.03
2023-03-21T04:45:22.817Z,101185.19
2023-03-21T04:46:14.393Z,101182.59
2023-03-21T04:47:07.009Z,101173.88
2023-03-21T04:47:59.037Z,101173.03
2023-03-21T04:48:51.301Z,101172.25
2023-03-21T04:49:48.197Z,101172.25
2023-03-21T04:50:40.980Z,101170.53
2023-03-21T04:51:33.292Z,101169.63
2023-03-21T04:52:25.498Z,101167.03
2023-03-21T04:53:17.615Z,101173.13
2023-03-21T04:54:12.215Z,101170.47
2023-03-21T04:55:04.083Z,101169.59
2023-03-21T04:55:57.581Z,101169.53
2023-03-21T04:56:49.598Z,101170.47
2023-03-21T04:57:41.497Z,101165.28
2023-03-21T04:58:33.137Z,101164.34
2023-03-21T04:59:24.771Z,101170.44
2023-03-21T05:00:17.393Z,101166.94
2023-03-21T05:01:09.576Z,101173.91
2023-03-21T05:02:01.271Z,101173.03
2023-03-21T05:02:52.738Z,101172.19
2023-03-21T05:03:45.789Z,101179.94
2023-03-21T05:04:37.550Z,101179.94
2023-03-21T05:05:29.110Z,101177.31
2023-03-21T05:06:21.073Z,101175.63
2023-03-21T05:07:14.669Z,101182.59
2023-03-21T05:08:06.751Z,101179.19
2023-03-21T05:09:00.655Z,101185.28
2023-03-21T05:09:52.573Z,101184.28
2023-03-21T05:10:44.107Z,101186.13
2023-03-21T05:11:38.653Z,101185.34
2023-03-21T05:12:30.679Z,101184.63
2023-03-21T05:13:22.336Z,101175.09
2023-03-21T05:14:21.807Z,101182.97
2023-03-21T05:15:13.406Z,101175.09
2023-03-21T05:16:05.525Z,101180.31
2023-03-21T05:16:58.000Z,101180.31
2023-03-21T05:17:52.849Z,101173.34
2023-03-21T05:18:44.912Z,101173.34
2023-03-21T05:19:42.728Z,101169.81
2023-03-21T05:20:35.709Z,101175.94
2023-03-21T05:21:29.638Z,101176.84
2023-03-21T05:22:26.659Z,101172.47
2023-03-21T05:23:18.472Z,101176.84
2023-03-21T05:24:14.965Z,101170.81
2023-03-21T05:25:08.875Z,101175.19
2023-03-21T05:26:15.046Z,101182.06
2023-03-21T05:27:35.027Z,101176.88
2023-03-21T05:28:31.682Z,101179.47
2023-03-21T05:29:24.712Z,101175.94
2023-03-21T05:30:21.949Z,101180.31
2023-03-21T05:31:18.457Z,101171.66
2023-03-21T05:32:12.258Z,101172.50
2023-03-21T05:33:04.368Z,101172.50
2023-03-21T05:33:55.983Z,101163.84
2023-03-21T05:34:47.786Z,101174.28
2023-03-21T05:35:40.282Z,101171.69
2023-03-21T05:36:35.991Z,101174.28
2023-03-21T05:37:29.881Z,101172.50
2023-03-21T05:38:21.855Z,101169.16
2023-03-21T05:39:16.715Z,101177.78
2023-03-21T05:40:17.226Z,101167.31
2023-03-21T05:41:11.941Z,101177.81
2023-03-21T05:42:03.854Z,101170.94
2023-03-21T05:42:56.383Z,101176.25
2023-03-21T05:43:49.320Z,101172.81
2023-03-21T05:44:40.877Z,101180.66
2023-03-21T05:45:34.167Z,101173.63
2023-03-21T05:46:25.922Z,101177.91
2023-03-21T05:47:18.688Z,101179.66
2023-03-21T05:48:12.431Z,101183.09
2023-03-21T05:49:22.678Z,101183.16
2023-03-21T05:50:19.015Z,101180.66
2023-03-21T05:51:19.866Z,101185.88
2023-03-21T05:52:11.817Z,101179.78
2023-03-21T05:53:03.509Z,101183.19
2023-03-21T05:53:55.593Z,101175.56
2023-03-21T05:54:47.048Z,101182.38
2023-03-21T05:55:39.769Z,101184.09
2023-03-21T05:56:36.335Z,101186.63
2023-03-21T05:57:30.570Z,101190.06
2023-03-21T05:58:29.724Z,101184.09
2023-03-21T05:59:21.266Z,101183.19
2023-03-21T06:00:17.042Z,101182.38
2023-03-21T06:01:08.541Z,101182.47
2023-03-21T06:02:02.741Z,101184.31
2023-03-21T06:02:54.790Z,101173.91
2023-03-21T06:04:10.315Z,101186.00
2023-03-21T06:05:01.887Z,101176.53
2023-03-21T06:05:53.407Z,101179.84
2023-03-21T06:06:50.421Z,101177.19
2023-03-21T06:07:42.436Z,101175.47
2023-03-21T06:08:35.024Z,101184.19
2023-03-21T06:09:26.639Z,101181.41
2023-03-21T09:12:42.783Z,101212.88
2023-03-21T09:13:34.728Z,101209.44
2023-03-21T09:14:28.928Z,101208.41
2023-03-21T09:15:24.325Z,101211.03
2023-03-21T09:16:16.093Z,101206.00
2023-03-21T09:17:07.631Z,101203.41
2023-03-21T09:18:13.264Z,101206.16
2023-03-21T09:19:08.460Z,101208.88
2023-03-21T09:20:10.794Z,101203.81
2023-03-21T09:21:02.257Z,101205.91
2023-03-21T09:21:55.671Z,101208.50
2023-03-21T09:22:55.293Z,101207.66
2023-03-21T09:23:48.518Z,101202.47
2023-03-21T09:24:42.097Z,101205.75
2023-03-21T09:25:33.924Z,101205.59
2023-03-21T09:26:28.009Z,101203.75
2023-03-21T09:27:25.398Z,101202.94
2023-03-21T09:28:17.056Z,101200.16
2023-03-21T09:29:08.927Z,101199.53
2023-03-21T09:30:00.752Z,101194.19
2023-03-21T09:30:52.342Z,101199.38
2023-03-21T09:31:44.111Z,101200.19
2023-03-21T09:32:37.331Z,101200.47
2023-03-21T09:33:29.622Z,101198.13
2023-03-21T09:34:21.262Z,101192.34
2023-03-21T09:35:12.990Z,101196.97
2023-03-21T09:36:09.905Z,101195.47
2023-03-21T09:37:02.172Z,101202.63
2023-03-21T09:37:55.196Z,101195.06
2023-03-21T09:38:49.158Z,101199.53
2023-03-21T09:39:42.756Z,101206.63
2023-03-21T09:40:53.027Z,101198.22
2023-03-21T09:42:02.355Z,101201.50
2023-03-21T09:43:14.760Z,101203.41
2023-03-21T09:44:24.842Z,101200.28
2023-03-21T09:45:28.092Z,101204.03
2023-03-21T09:46:29.262Z,101205.78
2023-03-21T09:47:29.432Z,101211.13
2023-03-21T09:48:46.967Z,101194.72
2023-03-21T09:50:13.072Z,101205.78
2023-03-21T09:51:16.049Z,101198.72
2023-03-21T09:52:19.791Z,101203.81
2023-03-21T09:53:33.331Z,101209.25
2023-03-21T09:54:35.952Z,101206.72
2023-03-21T09:55:31.725Z,101202.66
2023-03-21T09:56:26.263Z,101212.00
2023-03-21T09:57:27.373Z,101208.53
2023-03-21T09:58:34.631Z,101206.78
2023-03-21T09:59:38.370Z,101207.94
2023-03-21T10:00:43.441Z,101204.34
2023-03-21T10:01:42.123Z,101200.22
2023-03-21T10:02:45.497Z,101202.56
2023-03-21T10:03:38.213Z,101200.28
2023-03-21T10:04:31.854Z,101206.09
2023-03-21T10:05:29.238Z,101197.22
2023-03-21T10:06:30.551Z,101197.41
2023-03-21T10:07:22.595Z,101196.44
2023-03-21T10:08:14.744Z,101206.16
2023-03-21T10:09:14.217Z,101191.06
2023-03-21T10:10:07.363Z,101189.47
2023-03-21T10:11:07.573Z,101194.91
2023-03-21T10:12:08.413Z,101191.53
2023-03-21T10:12:59.816Z,101190.78
2023-03-21T10:13:58.377Z,101191.63
2023-03-21T10:14:58.685Z,101187.25
2023-03-21T10:15:51.757Z,101188.13
2023-03-21T10:16:52.016Z,101181.69
2023-03-21T10:17:51.837Z,101182.41
2023-03-21T10:18:46.906Z,101186.63
2023-03-21T10:19:38.412Z,101186.78
2023-03-21T10:20:36.448Z,101187.72
2023-03-21T10:21:56.904Z,101179.91
2023-03-21T10:22:42.495Z,101186.16
2023-03-21T10:23:34.181Z,101184.50
2023-03-21T10:24:29.031Z,101181.19
2023-03-21T10:25:34.382Z,101179.38
2023-03-21T10:26:30.557Z,101190.84
2023-03-21T10:27:22.218Z,101179.47
2023-03-21T10:28:19.357Z,101179.97
2023-03-21T10:29:16.624Z,101175.69
2023-03-21T10:30:18.385Z,101177.53
2023-03-21T10:31:17.911Z,101175.00
2023-03-21T10:32:13.998Z,101171.25
2023-03-21T10:33:12.873Z,101173.03
2023-03-21T10:34:15.692Z,101173.09
2023-03-21T10:35:10.740Z,101167.19
2023-03-21T10:36:08.323Z,101166.50
2023-03-21T10:37:03.728Z,101166.50
2023-03-21T10:37:55.627Z,101157.84
2023-03-21T10:38:52.898Z,101161.03
2023-03-21T10:39:50.396Z,101160.38
2023-03-21T10:40:41.961Z,101163.28
2023-03-21T10:41:33.984Z,101162.66
2023-03-21T10:42:29.908Z,101161.13
2023-03-21T10:43:27.321Z,101158.44
2023-03-21T10:44:20.720Z,101156.91
2023-03-21T10:45:19.383Z,101159.00
2023-03-21T10:46:21.260Z,101156.63
2023-03-21T10:47:24.453Z,101155.13
2023-03-21T10:48:16.285Z,101153.31
2023-03-21T10:49:08.402Z,101148.16
2023-03-21T10:50:11.920Z,101142.53
2023-03-21T10:51:09.440Z,101151.41
2023-03-21T10:52:18.205Z,101142.81
2023-03-21T10:53:22.682Z,101140.38
2023-03-21T10:54:19.888Z,101142.88
2023-03-21T10:55:21.649Z,101143.00
2023-03-21T10:56:17.260Z,101132.59
2023-03-21T10:57:15.625Z,101135.25
2023-03-21T10:58:18.648Z,101130.19
2023-03-21T10:59:20.727Z,101135.63
2023-03-21T11:00:22.680Z,101129.75
2023-03-21T11:01:41.860Z,101137.97
2023-03-21T11:02:37.642Z,101129.09
2023-03-21T11:03:38.400Z,101130.25
2023-03-21T11:04:30.822Z,101126.16
2023-03-21T11:05:37.223Z,101127.97
2023-03-21T11:06:35.143Z,101130.81
2023-03-21T11:07:31.576Z,101123.84
2023-03-21T11:08:29.807Z,101126.41
2023-03-21T11:09:28.064Z,101127.97
2023-03-21T11:10:30.170Z,101119.25
2023-03-21T11:11:29.706Z,101126.22
2023-03-21T11:12:37.219Z,101116.69
2023-03-21T11:13:44.176Z,101109.69
2023-03-21T11:14:43.458Z,101106.09
2023-03-21T11:15:48.830Z,101112.78
2023-03-21T11:16:44.394Z,101112.66
2023-03-21T11:17:36.097Z,101106.66
2023-03-21T11:18:33.035Z,101106.53
2023-03-21T11:19:33.462Z,101103.13
2023-03-21T11:20:30.747Z,101097.88
2023-03-21T11:21:29.747Z,101098.75
2023-03-21T11:22:24.846Z,101095.13
2023-03-21T11:23:18.696Z,101090.69
2023-03-21T11:24:18.398Z,101087.91
2023-03-21T11:25:23.136Z,101087.19
2023-03-21T11:26:43.465Z,101087.31
2023-03-21T11:27:35.894Z,101083.13
2023-03-21T11:28:38.297Z,101079.59
2023-03-21T11:29:34.688Z,101084.66
2023-03-21T11:30:28.075Z,101090.72
2023-03-21T11:31:21.349Z,101082.03
2023-03-21T11:32:22.119Z,101085.59
2023-03-21T11:33:13.824Z,101080.50
2023-03-21T11:34:08.632Z,101081.41
2023-03-21T11:35:06.408Z,101083.28
2023-03-21T11:36:05.351Z,101082.50
2023-03-21T11:37:02.540Z,101079.16
2023-03-21T11:37:56.300Z,101075.66
2023-03-21T11:39:15.750Z,101074.84
2023-03-21T11:40:07.288Z,101077.53
2023-03-21T11:41:02.333Z,101082.81
2023-03-21T11:41:53.846Z,101075.66
2023-03-21T11:42:51.635Z,101078.28
2023-03-21T11:43:52.607Z,101072.19
2023-03-21T11:44:45.262Z,101078.97
2023-03-21T11:45:38.611Z,101072.81
2023-03-21T11:46:39.723Z,101073.63
2023-03-21T11:47:31.601Z,101068.53
2023-03-21T11:48:24.033Z,101072.16
2023-03-21T11:49:15.506Z,101077.31
2023-03-21T11:50:27.506Z,101074.66
2023-03-21T11:51:56.211Z,101073.50
2023-03-21T11:53:13.191Z,101086.06
2023-03-21T11:54:13.972Z,101077.25
2023-03-21T11:55:42.816Z,101084.78
2023-03-21T11:56:36.440Z,101082.19
2023-03-21T11:57:37.137Z,101086.38
2023-03-21T11:59:03.679Z,101085.72
2023-03-21T12:00:14.342Z,101071.03
2023-03-21T12:01:14.098Z,101074.97
2023-03-21T12:02:55.244Z,101084.81
2023-03-21T12:03:58.655Z,101076.25
2023-03-21T12:05:02.363Z,101071.94
2023-03-21T12:06:00.186Z,101077.13
2023-03-21T12:07:23.139Z,101071.13
2023-03-21T12:08:39.294Z,101069.59
2023-03-21T12:09:45.098Z,101065.28
2023-03-21T12:10:54.516Z,101059.94
2023-03-21T12:12:11.767Z,101064.06
2023-03-21T12:13:34.316Z,101060.66
2023-03-21T12:14:49.184Z,101054.50
2023-03-21T12:15:55.721Z,101055.25
2023-03-21T12:17:16.186Z,101055.06
2023-03-21T12:18:49.258Z,101055.94
2023-03-21T12:20:01.884Z,101064.78
2023-03-21T12:20:59.581Z,101067.25
2023-03-21T12:22:18.766Z,101063.69
2023-03-21T12:23:38.037Z,101063.81
2023-03-21T12:24:49.463Z,101060.38
2023-03-21T12:25:56.412Z,101055.97
2023-03-21T12:27:14.572Z,101056.03
2023-03-21T12:28:33.276Z,101059.19
2023-03-21T12:29:43.386Z,101051.38
2023-03-21T12:30:53.485Z,101055.66
2023-03-21T12:32:34.488Z,101051.31
2023-03-21T12:34:06.717Z,101055.09
2023-03-21T12:35:11.635Z,101056.97
2023-03-21T12:36:21.875Z,101051.50
2023-03-21T12:37:35.888Z,101050.47
2023-03-21T12:38:44.067Z,101051.25
2023-03-21T12:39:38.876Z,101052.16
2023-03-21T12:40:54.541Z,101053.84
2023-03-21T12:42:00.716Z,101050.53
2023-03-21T12:43:03.843Z,101054.09
2023-03-21T12:44:03.048Z,101058.53
2023-03-21T12:45:11.615Z,101062.06
2023-03-21T12:46:18.710Z,101051.69
2023-03-21T12:47:23.959Z,101048.34
2023-03-21T12:48:38.948Z,101048.53
2023-03-21T12:49:35.882Z,101050.44
2023-03-21T12:50:37.362Z,101046.09
2023-03-21T12:51:44.472Z,101046.13
2023-03-21T12:52:42.131Z,101047.88
2023-03-21T12:53:53.052Z,101056.59
2023-03-21T12:55:01.748Z,101053.22
2023-03-21T12:56:01.841Z,101053.25
2023-03-21T12:57:04.495Z,101055.09
2023-03-21T12:58:01.930Z,101059.28
2023-03-21T12:59:28.971Z,101044.59
2023-03-21T13:00:42.728Z,101032.19
2023-03-21T13:01:40.116Z,101021.06
2023-03-21T13:02:37.839Z,101029.84
2023-03-21T13:03:40.559Z,101028.31
2023-03-21T13:05:00.053Z,101024.09
2023-03-21T13:05:58.200Z,101027.56
2023-03-21T13:06:55.773Z,101025.84
2023-03-21T13:08:11.256Z,101026.66
2023-03-21T13:09:18.044Z,101028.22
2023-03-21T13:10:21.000Z,101024.63
2023-03-21T13:11:20.149Z,101026.38
2023-03-21T13:12:26.132Z,101024.66
2023-03-21T13:13:43.017Z,101018.72
2023-03-21T13:14:48.652Z,101027.50
2023-03-21T13:16:17.538Z,101023.06
2023-03-21T13:17:45.277Z,101023.94
2023-03-21T13:18:47.024Z,101018.56
2023-03-21T13:19:50.045Z,101010.03
2023-03-21T13:20:55.545Z,101009.03
2023-03-21T13:22:02.012Z,101011.28
2023-03-21T13:22:53.526Z,101007.06
2023-03-21T13:24:17.260Z,101005.41
2023-03-21T13:25:26.268Z,101002.28
2023-03-21T13:26:17.824Z,100997.81
2023-03-21T13:27:24.938Z,100993.50
2023-03-21T13:28:28.270Z,101003.09
2023-03-21T13:29:26.928Z,100996.56
2023-03-21T13:30:22.788Z,100992.22
2023-03-21T13:31:30.517Z,100994.84
2023-03-21T13:32:34.024Z,100990.56
2023-03-21T13:33:34.528Z,100991.50
2023-03-21T13:34:27.050Z,100993.22
2023-03-21T13:35:27.819Z,100991.50
2023-03-21T13:36:26.701Z,100989.16
2023-03-21T13:37:20.127Z,100969.25
2023-03-21T13:38:21.091Z,100972.78
2023-03-21T13:39:20.965Z,100966.69
2023-03-21T13:40:27.342Z,100964.13
2023-03-21T13:41:39.322Z,100962.28
2023-03-21T13:42:33.654Z,100962.03
2023-03-21T13:44:06.394Z,100967.81
2023-03-21T13:45:00.866Z,100969.25
2023-03-21T13:45:53.943Z,100977.91
2023-03-21T13:46:55.065Z,100978.00
2023-03-21T13:48:04.643Z,100978.34
2023-03-21T13:49:13.138Z,100967.91
2023-03-21T13:50:19.818Z,100962.28
2023-03-21T13:51:11.704Z,100964.13
2023-03-21T13:52:27.754Z,100958.91
2023-03-21T13:53:22.419Z,100949.38
2023-03-21T13:54:13.882Z,100960.78
2023-03-21T13:55:16.761Z,100951.78
2023-03-21T13:56:17.340Z,100957.06
2023-03-21T13:57:41.427Z,100948.38
2023-03-21T13:58:32.841Z,100947.66
2023-03-21T13:59:44.568Z,100946.13
2023-03-21T14:00:39.800Z,100943.34
2023-03-21T14:01:41.633Z,100940.72
2023-03-21T14:02:34.617Z,100938.06
2023-03-21T14:03:33.998Z,100950.06
2023-03-21T14:04:42.109Z,100954.34
2023-03-21T14:05:35.608Z,100945.59
2023-03-21T14:06:38.380Z,100945.75
2023-03-21T14:07:34.494Z,100944.81
2023-03-21T14:08:37.269Z,100939.63
2023-03-21T14:09:39.375Z,100945.94
2023-03-21T14:10:39.641Z,100938.16
2023-03-21T14:11:34.278Z,100938.00
2023-03-21T14:12:37.411Z,100926.72
2023-03-21T14:13:31.331Z,100929.44
2023-03-21T14:14:47.068Z,100930.31
2023-03-21T14:15:54.983Z,100926.13
2023-03-21T14:16:47.743Z,100933.09
2023-03-21T14:17:39.435Z,100925.28
2023-03-21T14:18:58.631Z,100917.41
2023-03-21T14:19:42.431Z,100928.75
2023-03-21T14:20:39.985Z,100922.56
2023-03-21T14:21:34.467Z,100930.44
2023-03-21T14:22:26.045Z,100923.41
2023-03-21T14:23:17.587Z,100925.16
2023-03-21T14:24:14.088Z,100923.50
2023-03-21T14:25:12.674Z,100912.16
2023-03-21T14:26:04.548Z,100917.41
2023-03-21T14:26:56.113Z,100918.31
2023-03-21T14:27:55.471Z,100913.09
2023-03-21T14:28:51.888Z,100911.38
2023-03-21T14:29:46.085Z,100907.09
2023-03-21T14:30:40.586Z,100911.41
2023-03-21T14:31:34.079Z,100903.66
2023-03-21T14:32:29.294Z,100907.09